createdAt,value
2019-05-21T00:00:59.857Z,6.10
2019-05-21T00:03:28.598Z,5.50
2019-05-21T00:05:57.387Z,5.60
2019-05-21T00:08:26.120Z,5.97
2019-05-21T00:10:54.979Z,5.70
2019-05-21T00:13:23.720Z,5.50
2019-05-21T00:15:52.619Z,5.10
2019-05-21T00:18:21.440Z,5.20
2019-05-21T00:20:50.175Z,5.40
2019-05-21T00:23:18.955Z,5.33
2019-05-21T00:25:47.702Z,5.73
2019-05-21T00:28:41.990Z,5.60
2019-05-21T00:31:47.068Z,5.67
2019-05-21T00:34:52.118Z,5.50
2019-05-21T00:37:56.778Z,5.40
2019-05-21T00:41:01.596Z,5.37
2019-05-21T00:43:48.300Z,5.60
2019-05-21T00:46:17.102Z,5.13
2019-05-21T00:48:45.833Z,5.73
2019-05-21T00:51:14.621Z,5.40
2019-05-21T00:53:43.548Z,5.27
2019-05-21T00:56:12.293Z,5.23
2019-05-21T00:58:41.037Z,5.43
2019-05-21T01:01:09.804Z,4.83
2019-05-21T01:03:38.551Z,5.17
2019-05-21T01:06:07.336Z,5.03
2019-05-21T01:08:36.167Z,5.00
2019-05-21T01:11:04.931Z,5.23
2019-05-21T01:13:33.681Z,5.30
2019-05-21T01:16:02.419Z,5.00
2019-05-21T01:18:31.155Z,4.97
2019-05-21T01:20:59.986Z,4.90
2019-05-21T01:23:28.754Z,4.90
2019-05-21T01:25:57.482Z,4.90
2019-05-21T01:28:26.445Z,4.77
2019-05-21T01:30:55.291Z,5.00
2019-05-21T01:33:24.129Z,4.87
2019-05-21T01:35:52.874Z,4.53
2019-05-21T01:38:21.640Z,5.00
2019-05-21T01:40:50.388Z,4.43
2019-05-21T01:43:19.128Z,4.63
2019-05-21T01:45:47.873Z,4.80
2019-05-21T01:48:16.596Z,4.87
2019-05-21T01:50:45.347Z,4.60
2019-05-21T01:53:14.179Z,4.97
2019-05-21T01:55:42.960Z,4.67
2019-05-21T01:58:11.712Z,4.67
2019-05-21T02:00:40.500Z,5.03
2019-05-21T02:03:09.215Z,4.20
2019-05-21T02:05:38.255Z,4.80
2019-05-21T02:08:07.015Z,4.60
2019-05-21T02:10:35.848Z,4.33
2019-05-21T02:13:04.629Z,4.73
2019-05-21T02:15:33.476Z,4.80
2019-05-21T02:18:02.210Z,5.00
2019-05-21T02:20:31.001Z,4.33
2019-05-21T02:22:59.765Z,4.40
2019-05-21T02:25:28.518Z,4.60
2019-05-21T02:27:57.255Z,4.77
2019-05-21T02:30:26.014Z,4.57
2019-05-21T02:32:54.752Z,4.30
2019-05-21T02:35:23.508Z,4.63
2019-05-21T02:37:52.323Z,4.10
2019-05-21T02:40:21.080Z,4.40
2019-05-21T02:42:49.851Z,4.80
2019-05-21T02:45:18.583Z,4.23
2019-05-21T02:47:47.374Z,4.37
2019-05-21T02:50:16.143Z,4.40
2019-05-21T02:52:44.893Z,3.80
2019-05-21T02:55:13.738Z,4.10
2019-05-21T02:57:42.513Z,4.50
2019-05-21T03:00:38.757Z,3.80
2019-05-21T03:03:07.835Z,4.20
2019-05-21T03:05:36.613Z,4.20
2019-05-21T03:08:05.384Z,4.10
2019-05-21T03:10:34.193Z,4.07
2019-05-21T03:13:02.932Z,4.37
2019-05-21T03:15:31.686Z,4.30
2019-05-21T03:18:00.428Z,4.67
2019-05-21T03:20:29.210Z,4.40
2019-05-21T03:22:58.341Z,4.00
2019-05-21T03:25:27.181Z,3.80
2019-05-21T03:27:55.927Z,4.00
2019-05-21T03:32:52.608Z,4.03
2019-05-21T03:35:21.433Z,3.93
2019-05-21T03:37:50.179Z,4.13
2019-05-21T03:40:18.999Z,4.07
2019-05-21T03:42:47.839Z,4.20
2019-05-21T03:45:16.604Z,4.00
2019-05-21T03:47:45.353Z,3.93
2019-05-21T03:50:14.087Z,4.13
2019-05-21T03:52:42.857Z,4.40
2019-05-21T03:55:11.877Z,3.87
2019-05-21T03:57:40.861Z,4.03
2019-05-21T04:00:10.567Z,4.07
2019-05-21T04:02:39.418Z,3.93
2019-05-21T04:05:08.166Z,3.90
2019-05-21T04:07:36.958Z,4.30
2019-05-21T04:10:12.638Z,4.47
2019-05-21T04:12:41.523Z,3.80
2019-05-21T04:15:12.566Z,4.30
2019-05-21T04:17:56.245Z,4.20
2019-05-21T04:20:24.984Z,4.13
2019-05-21T04:22:53.818Z,4.40
2019-05-21T04:25:23.457Z,4.23
2019-05-21T04:27:52.307Z,4.70
2019-05-21T04:30:21.242Z,4.83
2019-05-21T04:32:50.089Z,4.70
2019-05-21T04:35:18.853Z,4.60
2019-05-21T04:37:47.773Z,4.43
2019-05-21T04:40:16.566Z,4.27
2019-05-21T04:42:45.333Z,4.63
2019-05-21T04:45:14.481Z,4.90
2019-05-21T04:47:43.249Z,4.83
2019-05-21T04:50:12.006Z,4.43
2019-05-21T04:52:40.744Z,4.23
2019-05-21T04:55:09.582Z,4.20
2019-05-21T04:57:38.312Z,4.90
2019-05-21T05:00:07.089Z,4.70
2019-05-21T05:02:35.838Z,5.10
2019-05-21T05:05:05.123Z,4.57
2019-05-21T05:07:33.852Z,4.77
2019-05-21T05:10:02.590Z,5.23
2019-05-21T05:12:31.495Z,5.70
2019-05-21T05:15:00.287Z,5.67
2019-05-21T05:17:29.085Z,5.50
2019-05-21T05:19:57.888Z,5.60
2019-05-21T05:22:26.660Z,5.83
2019-05-21T05:24:55.418Z,5.80
2019-05-21T05:27:24.214Z,6.10
2019-05-21T05:29:52.960Z,5.53
2019-05-21T05:32:21.707Z,5.40
2019-05-21T05:34:50.453Z,6.03
2019-05-21T05:37:19.269Z,5.70
2019-05-21T05:39:48.021Z,6.07
2019-05-21T05:42:16.770Z,6.00
2019-05-21T05:44:45.639Z,5.67
2019-05-21T05:47:14.385Z,5.67
2019-05-21T05:49:46.538Z,5.47
2019-05-21T05:52:15.370Z,6.10
2019-05-21T05:54:44.206Z,5.40
2019-05-21T05:57:12.947Z,5.43
2019-05-21T05:59:41.774Z,5.40
2019-05-21T06:02:10.606Z,5.57
2019-05-21T06:04:39.372Z,5.47
2019-05-21T06:07:08.127Z,5.60
2019-05-21T06:09:36.875Z,5.20
2019-05-21T06:12:05.645Z,5.83
2019-05-21T06:14:34.460Z,5.20
2019-05-21T06:17:03.235Z,5.30
2019-05-21T06:19:31.972Z,5.30
2019-05-21T06:22:00.717Z,5.53
2019-05-21T06:24:29.553Z,5.00
2019-05-21T06:26:58.322Z,5.33
2019-05-21T06:29:27.135Z,5.60
2019-05-21T06:31:55.904Z,5.33
2019-05-21T06:34:24.643Z,5.20
2019-05-21T06:36:53.434Z,5.40
2019-05-21T06:39:22.194Z,5.13
2019-05-21T06:41:50.982Z,5.50
2019-05-21T06:44:19.811Z,5.17
2019-05-21T06:46:48.796Z,5.73
2019-05-21T06:49:17.612Z,5.43
2019-05-21T06:51:46.490Z,5.83
2019-05-21T06:54:15.367Z,5.73
2019-05-21T06:56:44.138Z,5.53
2019-05-21T06:59:12.908Z,5.20
2019-05-21T07:01:41.664Z,5.30
2019-05-21T07:04:10.447Z,5.60
2019-05-21T07:06:39.195Z,6.00
2019-05-21T07:09:08.043Z,5.57
2019-05-21T07:11:36.784Z,5.30
2019-05-21T07:14:05.637Z,5.10
2019-05-21T07:16:34.443Z,5.67
2019-05-21T07:19:03.219Z,5.20
2019-05-21T07:21:31.992Z,5.10
2019-05-21T07:24:00.776Z,5.40
2019-05-21T07:26:29.597Z,5.50
2019-05-21T07:28:58.374Z,5.00
2019-05-21T07:31:27.278Z,4.63
2019-05-21T07:33:56.047Z,4.90
2019-05-21T07:36:25.109Z,5.40
2019-05-21T07:38:54.419Z,4.70
2019-05-21T07:41:23.444Z,5.37
2019-05-21T07:43:52.237Z,5.50
2019-05-21T07:46:20.969Z,5.20
2019-05-21T07:48:49.726Z,5.00
2019-05-21T07:51:18.481Z,4.87
2019-05-21T07:53:47.231Z,5.10
2019-05-21T07:56:16.056Z,5.27
2019-05-21T07:58:44.912Z,5.33
2019-05-21T08:01:13.660Z,4.90
2019-05-21T08:03:42.430Z,4.83
2019-05-21T08:06:14.731Z,5.23
2019-05-21T08:08:41.683Z,5.00
2019-05-21T08:11:10.450Z,4.37
2019-05-21T08:13:39.203Z,4.63
2019-05-21T08:16:07.949Z,4.63
2019-05-21T08:18:36.777Z,4.93
2019-05-21T08:21:05.791Z,4.80
2019-05-21T08:23:34.537Z,4.53
2019-05-21T08:26:03.319Z,4.70
2019-05-21T08:28:32.067Z,4.70
2019-05-21T08:31:02.381Z,5.00
2019-05-21T08:33:31.369Z,5.03
2019-05-21T08:36:00.153Z,5.20
2019-05-21T08:38:28.984Z,4.57
2019-05-21T08:40:57.902Z,4.60
2019-05-21T08:43:26.658Z,4.97
2019-05-21T08:45:55.482Z,5.00
2019-05-21T08:48:24.334Z,4.70
2019-05-21T08:50:53.105Z,4.27
2019-05-21T08:53:21.861Z,4.60
2019-05-21T08:55:50.591Z,4.90
2019-05-21T08:58:19.352Z,4.33
2019-05-21T09:00:48.179Z,4.53
2019-05-21T09:03:17.000Z,4.80
2019-05-21T09:05:45.800Z,4.40
2019-05-21T09:08:14.688Z,4.70
2019-05-21T09:10:43.426Z,4.83
2019-05-21T09:13:12.276Z,4.57
2019-05-21T09:15:41.011Z,5.07
2019-05-21T09:18:09.759Z,4.80
2019-05-21T09:20:38.515Z,4.70
2019-05-21T09:23:07.275Z,4.10
2019-05-21T09:25:36.003Z,4.60
2019-05-21T09:28:04.904Z,5.20
2019-05-21T09:30:33.677Z,4.90
2019-05-21T09:33:02.443Z,5.43
2019-05-21T09:35:31.214Z,4.80
2019-05-21T09:37:59.983Z,4.93
2019-05-21T09:40:28.839Z,4.73
2019-05-21T09:42:57.701Z,4.83
2019-05-21T09:45:26.488Z,4.73
2019-05-21T09:47:55.281Z,4.70
2019-05-21T09:50:24.136Z,5.00
2019-05-21T09:52:52.915Z,5.20
2019-05-21T09:55:21.677Z,4.80
2019-05-21T09:58:21.799Z,4.10
2019-05-21T10:01:16.332Z,4.50
2019-05-21T10:03:48.894Z,4.67
2019-05-21T10:06:17.659Z,4.73
2019-05-21T10:08:46.411Z,4.63
2019-05-21T10:11:15.263Z,4.57
2019-05-21T10:13:44.037Z,4.60
2019-05-21T10:16:12.801Z,5.10
2019-05-21T10:18:41.555Z,4.57
2019-05-21T10:21:10.336Z,4.57
2019-05-21T10:23:39.113Z,5.00
2019-05-21T10:26:07.849Z,4.50
2019-05-21T10:28:36.631Z,4.77
2019-05-21T10:31:05.377Z,4.60
2019-05-21T10:33:34.311Z,4.50
2019-05-21T10:36:03.043Z,4.70
2019-05-21T10:38:31.816Z,5.03
2019-05-21T10:41:00.595Z,4.67
2019-05-21T10:43:29.397Z,4.70
2019-05-21T10:45:58.135Z,4.90
2019-05-21T10:48:27.005Z,4.57
2019-05-21T10:50:55.793Z,4.80
2019-05-21T10:53:24.543Z,4.30
2019-05-21T10:55:53.340Z,4.53
2019-05-21T10:58:22.241Z,5.03
2019-05-21T11:00:52.731Z,4.67
2019-05-21T11:03:31.811Z,4.70
2019-05-21T11:06:09.459Z,4.63
2019-05-21T11:08:31.094Z,4.33
2019-05-21T11:10:59.905Z,4.53
2019-05-21T11:13:28.751Z,5.00
2019-05-21T11:15:57.579Z,4.67
2019-05-21T11:18:26.407Z,4.73
2019-05-21T11:20:55.249Z,4.50
2019-05-21T11:23:24.029Z,4.40
2019-05-21T11:25:52.786Z,4.27
2019-05-21T11:28:21.562Z,4.53
2019-05-21T11:30:50.430Z,4.50
2019-05-21T11:33:19.376Z,4.17
2019-05-21T11:35:48.165Z,4.50
2019-05-21T11:38:16.932Z,4.53
2019-05-21T11:40:50.852Z,4.40
2019-05-21T11:43:16.256Z,4.70
2019-05-21T11:45:45.108Z,4.40
2019-05-21T11:48:13.897Z,4.80
2019-05-21T11:50:42.748Z,4.77
2019-05-21T11:53:11.602Z,4.43
2019-05-21T11:55:40.429Z,4.60
2019-05-21T11:58:09.201Z,5.07
2019-05-21T12:00:38.241Z,4.63
2019-05-21T12:03:07.095Z,4.13
2019-05-21T12:05:35.983Z,4.70
2019-05-21T12:08:04.802Z,4.50
2019-05-21T12:10:33.679Z,4.80
2019-05-21T12:13:02.585Z,4.70
2019-05-21T12:15:31.426Z,5.07
2019-05-21T12:18:00.269Z,4.73
2019-05-21T12:20:36.660Z,5.00
2019-05-21T12:22:59.595Z,5.00
2019-05-21T12:25:28.442Z,5.27
2019-05-21T12:27:57.232Z,5.23
2019-05-21T12:30:26.135Z,5.10
2019-05-21T12:32:55.082Z,4.83
2019-05-21T12:35:23.955Z,5.10
2019-05-21T12:37:52.730Z,5.30
2019-05-21T12:40:21.523Z,5.40
2019-05-21T12:42:50.310Z,4.97
2019-05-21T12:45:19.093Z,4.93
2019-05-21T12:47:50.623Z,7.10
2019-05-21T12:50:21.418Z,6.20
2019-05-21T12:52:50.224Z,6.20
2019-05-21T12:55:19.107Z,5.77
2019-05-21T12:57:47.881Z,6.23
2019-05-21T13:00:16.715Z,6.03
2019-05-21T13:02:45.456Z,5.77
2019-05-21T13:05:14.214Z,5.87
2019-05-21T13:07:42.980Z,5.77
2019-05-21T13:10:12.091Z,6.10
2019-05-21T13:12:40.874Z,5.63
2019-05-21T13:15:10.202Z,5.30
2019-05-21T13:17:38.961Z,5.73
2019-05-21T13:20:08.297Z,5.70
2019-05-21T13:22:37.366Z,6.20
2019-05-21T13:25:06.431Z,5.47
2019-05-21T13:27:35.214Z,5.40
2019-05-21T13:30:04.428Z,5.60
2019-05-21T13:32:33.306Z,5.30
2019-05-21T13:35:02.830Z,5.70
2019-05-21T13:37:31.847Z,5.50
2019-05-21T13:40:00.682Z,6.00
2019-05-21T13:42:29.531Z,5.20
2019-05-21T13:44:58.288Z,5.50
2019-05-21T13:47:27.046Z,5.70
2019-05-21T13:49:55.839Z,5.33
2019-05-21T13:52:24.610Z,5.97
2019-05-21T13:54:53.478Z,5.73
2019-05-21T13:57:22.317Z,5.30
2019-05-21T13:59:51.222Z,5.70
2019-05-21T14:02:20.565Z,5.07
2019-05-21T14:04:49.394Z,5.70
2019-05-21T14:07:18.220Z,5.70
2019-05-21T14:09:47.032Z,6.00
2019-05-21T14:12:16.376Z,6.27
2019-05-21T14:14:45.162Z,5.43
2019-05-21T14:17:15.125Z,5.67
2019-05-21T14:19:44.092Z,5.43
2019-05-21T14:22:14.408Z,5.37
2019-05-21T14:24:43.445Z,5.30
2019-05-21T14:27:12.402Z,5.27
2019-05-21T14:29:41.263Z,5.27
2019-05-21T14:32:10.209Z,5.87
2019-05-21T14:34:38.968Z,6.00
2019-05-21T14:37:10.358Z,6.43
2019-05-21T14:39:39.236Z,5.73
2019-05-21T14:42:08.132Z,5.70
2019-05-21T14:44:36.892Z,5.80
2019-05-21T14:47:09.349Z,5.60
2019-05-21T14:49:38.234Z,5.50
2019-05-21T14:52:07.474Z,5.00
2019-05-21T14:54:36.248Z,5.13
2019-05-21T14:57:10.855Z,5.17
2019-05-21T14:59:39.868Z,5.60
2019-05-21T15:02:08.785Z,5.47
2019-05-21T15:04:37.889Z,5.00
2019-05-21T15:07:06.819Z,5.33
2019-05-21T15:09:35.675Z,4.93
2019-05-21T15:12:04.454Z,5.07
2019-05-21T15:14:33.228Z,5.90
2019-05-21T15:17:02.234Z,5.33
2019-05-21T15:19:31.129Z,5.30
2019-05-21T15:22:00.001Z,5.17
2019-05-21T15:24:28.766Z,5.27
2019-05-21T15:26:57.593Z,5.27
2019-05-21T15:29:26.366Z,5.20
2019-05-21T15:31:55.173Z,4.70
2019-05-21T15:34:23.932Z,5.10
2019-05-21T15:36:52.834Z,5.17
2019-05-21T15:39:21.606Z,4.93
2019-05-21T15:41:50.356Z,5.43
2019-05-21T15:44:19.182Z,5.53
2019-05-21T15:46:50.453Z,4.53
2019-05-21T15:49:33.326Z,4.77
2019-05-21T15:51:49.165Z,4.50
2019-05-21T15:54:18.034Z,5.03
2019-05-21T15:56:46.827Z,4.60
2019-05-21T15:59:15.665Z,4.57
2019-05-21T16:01:44.414Z,5.00
2019-05-21T16:04:16.269Z,5.03
2019-05-21T16:06:43.743Z,4.80
2019-05-21T16:09:12.665Z,5.67
2019-05-21T16:11:41.480Z,5.63
2019-05-21T16:14:10.252Z,5.40
2019-05-21T16:16:39.161Z,5.63
2019-05-21T16:19:07.905Z,5.50
2019-05-21T16:21:36.682Z,5.27
2019-05-21T16:24:05.550Z,5.00
2019-05-21T16:26:34.329Z,4.73
2019-05-21T16:29:03.174Z,5.30
2019-05-21T16:31:31.936Z,5.27
2019-05-21T16:34:00.906Z,5.07
2019-05-21T16:36:29.832Z,5.00
2019-05-21T16:38:58.723Z,5.20
2019-05-21T16:41:41.907Z,5.30
2019-05-21T16:43:58.126Z,4.90
2019-05-21T16:46:26.892Z,5.00
2019-05-21T16:48:55.651Z,5.13
2019-05-21T16:51:24.416Z,5.23
2019-05-21T16:53:53.192Z,5.00
2019-05-21T16:56:21.952Z,5.10
2019-05-21T16:58:50.828Z,4.90
2019-05-21T17:01:19.634Z,4.50
2019-05-21T17:03:59.516Z,4.80
2019-05-21T17:06:18.969Z,4.80
2019-05-21T17:08:47.775Z,4.67
2019-05-21T17:11:16.537Z,4.70
2019-05-21T17:13:45.349Z,5.10
2019-05-21T17:16:14.125Z,4.50
2019-05-21T17:18:42.966Z,4.70
2019-05-21T17:21:11.745Z,4.77
2019-05-21T17:23:40.545Z,4.70
2019-05-21T17:26:09.391Z,5.33
2019-05-21T17:28:38.245Z,4.73
2019-05-21T17:31:07.019Z,5.17
2019-05-21T17:33:35.800Z,4.60
2019-05-21T17:36:04.668Z,5.23
2019-05-21T17:38:33.419Z,4.87
2019-05-21T17:41:02.358Z,5.00
2019-05-21T17:43:31.144Z,5.13
2019-05-21T17:46:00.071Z,4.63
2019-05-21T17:48:28.901Z,5.10
2019-05-21T17:50:57.848Z,5.20
2019-05-21T17:53:26.643Z,5.47
2019-05-21T17:55:55.478Z,4.90
2019-05-21T17:58:24.786Z,5.43
2019-05-21T18:00:58.139Z,4.83
2019-05-21T18:03:27.112Z,5.00
2019-05-21T18:05:56.403Z,4.87
2019-05-21T18:08:34.241Z,5.57
2019-05-21T18:11:03.603Z,5.07
2019-05-21T18:13:33.269Z,4.93
2019-05-21T18:16:02.045Z,5.40
2019-05-21T18:18:31.410Z,5.40
2019-05-21T18:21:00.160Z,5.07
2019-05-21T18:23:28.908Z,4.80
2019-05-21T18:25:57.673Z,4.67
2019-05-21T18:28:26.556Z,5.43
2019-05-21T18:30:55.597Z,4.50
2019-05-21T18:33:24.413Z,5.00
2019-05-21T18:35:53.207Z,4.73
2019-05-21T18:38:21.980Z,5.00
2019-05-21T18:40:50.802Z,5.10
2019-05-21T18:43:19.628Z,4.53
2019-05-21T18:45:48.395Z,4.93
2019-05-21T18:48:17.252Z,5.03
2019-05-21T18:50:46.007Z,4.70
2019-05-21T18:53:14.783Z,4.90
2019-05-21T18:55:43.571Z,5.17
2019-05-21T18:58:12.329Z,4.90
2019-05-21T19:00:41.170Z,4.70
2019-05-21T19:03:10.043Z,4.77
2019-05-21T19:05:38.979Z,4.73
2019-05-21T19:08:07.985Z,4.67
2019-05-21T19:10:36.832Z,4.53
2019-05-21T19:13:05.577Z,4.67
2019-05-21T19:15:34.343Z,4.50
2019-05-21T19:18:03.073Z,4.70
2019-05-21T19:20:31.826Z,4.53
2019-05-21T19:23:00.576Z,4.60
2019-05-21T19:25:29.385Z,4.63
2019-05-21T19:27:58.219Z,4.87
2019-05-21T19:30:27.147Z,4.50
2019-05-21T19:32:55.920Z,4.90
2019-05-21T19:35:24.774Z,4.97
2019-05-21T19:37:53.539Z,4.67
2019-05-21T19:40:22.599Z,4.47
2019-05-21T19:42:55.417Z,4.53
2019-05-21T19:45:21.889Z,4.30
2019-05-21T19:47:50.869Z,4.23
2019-05-21T19:50:19.783Z,4.50
2019-05-21T19:52:48.680Z,4.40
2019-05-21T19:55:17.459Z,4.17
2019-05-21T19:57:46.359Z,3.90
2019-05-21T20:00:15.665Z,4.10
2019-05-21T20:02:44.450Z,4.53
2019-05-21T20:05:13.789Z,4.00
2019-05-21T20:07:42.545Z,4.53
2019-05-21T20:10:11.421Z,4.60
2019-05-21T20:12:40.278Z,4.00
2019-05-21T20:15:09.073Z,3.97
2019-05-21T20:17:38.602Z,4.20
2019-05-21T20:20:07.537Z,4.20
2019-05-21T20:22:36.390Z,4.20
2019-05-21T20:25:06.348Z,3.97
2019-05-21T20:27:36.123Z,4.50
2019-05-21T20:30:12.741Z,3.90
2019-05-21T20:32:38.304Z,4.13
2019-05-21T20:35:08.047Z,4.30
2019-05-21T20:37:38.765Z,3.93
2019-05-21T20:40:11.192Z,3.97
2019-05-21T20:42:40.647Z,4.07
2019-05-21T20:45:11.353Z,3.67
2019-05-21T20:47:40.224Z,3.80
2019-05-21T20:50:12.358Z,3.60
2019-05-21T20:52:42.068Z,3.70
2019-05-21T20:55:10.955Z,3.87
2019-05-21T20:57:39.830Z,4.00
2019-05-21T21:00:08.760Z,3.60
2019-05-21T21:02:38.277Z,3.70
2019-05-21T21:05:07.600Z,3.60
2019-05-21T21:07:38.815Z,3.60
2019-05-21T21:10:07.983Z,3.60
2019-05-21T21:12:37.106Z,3.90
2019-05-21T21:15:06.541Z,4.17
2019-05-21T21:17:35.321Z,3.90
2019-05-21T21:20:04.743Z,3.40
2019-05-21T21:22:33.575Z,3.67
2019-05-21T21:25:03.383Z,3.73
2019-05-21T21:27:32.630Z,4.10
2019-05-21T21:30:01.841Z,3.60
2019-05-21T21:32:31.009Z,3.80
2019-05-21T21:34:59.938Z,3.50
2019-05-21T21:37:28.735Z,3.80
2019-05-21T21:39:58.163Z,3.80
2019-05-21T21:42:27.051Z,3.50
2019-05-21T21:44:55.799Z,3.60
2019-05-21T21:47:24.539Z,3.53
2019-05-21T21:49:53.577Z,3.60
2019-05-21T21:52:22.428Z,3.53
2019-05-21T21:54:51.249Z,3.50
2019-05-21T21:57:20.016Z,3.90
2019-05-21T21:59:48.867Z,3.80
2019-05-21T22:02:31.478Z,3.73
2019-05-21T22:05:00.257Z,3.80
2019-05-21T22:07:29.701Z,3.60
2019-05-21T22:09:58.885Z,3.60
2019-05-21T22:12:27.704Z,3.30
2019-05-21T22:14:58.182Z,3.67
2019-05-21T22:17:27.131Z,3.53
2019-05-21T22:19:56.206Z,3.30
2019-05-21T22:22:25.803Z,3.50
2019-05-21T22:24:54.847Z,3.27
2019-05-21T22:27:23.577Z,3.40
2019-05-21T22:29:52.491Z,3.50
2019-05-21T22:32:21.339Z,3.50
2019-05-21T22:34:50.079Z,3.23
2019-05-21T22:37:22.217Z,2.93
2019-05-21T22:39:51.894Z,3.30
2019-05-21T22:42:22.538Z,3.37
2019-05-21T22:45:06.864Z,3.40
2019-05-21T22:47:23.053Z,2.90
2019-05-21T22:49:51.808Z,3.43
2019-05-21T22:52:20.575Z,3.17
2019-05-21T22:54:49.469Z,3.20
2019-05-21T22:57:18.287Z,3.13
2019-05-21T22:59:47.155Z,3.37
2019-05-21T23:02:21.051Z,3.20
2019-05-21T23:04:49.940Z,3.23
2019-05-21T23:07:18.773Z,3.27
2019-05-21T23:09:47.671Z,3.27
2019-05-21T23:12:16.446Z,3.10
2019-05-21T23:14:45.234Z,3.30
2019-05-21T23:17:14.076Z,3.10
2019-05-21T23:19:44.503Z,2.90
2019-05-21T23:22:14.055Z,3.10
2019-05-21T23:24:43.018Z,3.00
2019-05-21T23:27:13.431Z,3.10
2019-05-21T23:29:42.566Z,2.90
2019-05-21T23:32:11.396Z,3.07
2019-05-21T23:34:40.173Z,2.90
2019-05-21T23:37:15.572Z,3.00
2019-05-21T23:39:45.907Z,2.83
2019-05-21T23:42:28.574Z,3.33
2019-05-21T23:44:45.399Z,3.10
2019-05-21T23:47:16.038Z,3.00
2019-05-21T23:49:44.800Z,3.07
2019-05-21T23:52:13.651Z,2.80
2019-05-21T23:54:42.398Z,3.10
2019-05-21T23:57:16.038Z,3.03
2019-05-21T23:59:45.072Z,3.10
